Time;durP1;ratioP1;P1;durP2;ratioP2;P2;SDS_P1;SDS_P2;PMS_P1;PMS_P2;Temp;Humidity;BMP_temperature;BMP_pressure;BME280_temperature;BME280_humidity;BME280_pressure;Samples;Min_cycle;Max_cycle;Signal;HPM_P1;HPM_P2
2022/07/19 00:00:24;;;;;;;4.42;1.22;;;;;;;16.55;61.39;101109.16;1760112;80;23139;-58
2022/07/19 00:02:52;;;;;;;5.80;1.67;;;;;;;16.47;61.74;101105.38;1765858;79;21612;-59
2022/07/19 00:05:18;;;;;;;4.03;1.15;;;;;;;16.45;61.88;101110.00;1763882;80;21016;-59
2022/07/19 00:07:45;;;;;;;3.92;1.47;;;;;;;16.46;61.99;101106.88;1764792;79;21102;-59
2022/07/19 00:10:15;;;;;;;4.28;1.57;;;;;;;16.47;62.20;101108.53;1760582;80;21066;-59
2022/07/19 00:12:42;;;;;;;4.12;1.35;;;;;;;16.44;62.43;101111.00;1752563;80;21714;-58
2022/07/19 00:15:11;;;;;;;3.27;1.20;;;;;;;16.44;62.55;101114.98;1762608;80;21134;-58
2022/07/19 00:17:46;;;;;;;4.12;1.67;;;;;;;16.39;62.80;101109.27;1762576;79;22533;-59
2022/07/19 00:20:14;;;;;;;3.60;1.42;;;;;;;16.36;63.04;101108.22;1755424;80;21573;-59
2022/07/19 00:22:41;;;;;;;3.98;1.40;;;;;;;16.30;63.25;101104.30;1753530;79;22546;-59
2022/07/19 00:25:08;;;;;;;4.92;1.70;;;;;;;16.24;63.37;101102.70;1759169;80;21102;-59
2022/07/19 00:27:35;;;;;;;5.20;1.25;;;;;;;16.24;63.53;101100.91;1750903;79;21446;-59
2022/07/19 00:30:04;;;;;;;3.85;1.45;;;;;;;16.27;63.59;101099.77;1758760;80;21540;-58
2022/07/19 00:32:31;;;;;;;3.65;1.30;;;;;;;16.30;63.72;101104.30;1751143;80;21543;-59
2022/07/19 00:34:57;;;;;;;5.20;1.32;;;;;;;16.31;63.87;101102.50;1749864;80;21419;-59
2022/07/19 00:37:24;;;;;;;3.27;1.30;;;;;;;16.29;63.90;101107.09;1758731;79;21128;-59
2022/07/19 00:39:50;;;;;;;5.60;1.55;;;;;;;16.25;63.91;101097.25;1756109;80;21063;-58
2022/07/19 00:42:18;;;;;;;4.05;1.35;;;;;;;16.23;64.03;101101.04;1763351;80;21054;-58
2022/07/19 00:44:44;;;;;;;6.58;1.80;;;;;;;16.18;64.05;101094.82;1751527;80;21057;-59
2022/07/19 00:47:11;;;;;;;5.20;1.70;;;;;;;16.13;64.09;101096.56;1759898;80;21086;-58
2022/07/19 00:49:37;;;;;;;4.12;1.55;;;;;;;16.09;63.95;101096.52;1755892;80;21131;-58
2022/07/19 00:52:05;;;;;;;4.65;1.60;;;;;;;16.10;63.71;101094.19;1756498;80;21114;-58
2022/07/19 00:54:34;;;;;;;3.45;1.20;;;;;;;16.07;63.66;101093.17;1752903;80;21591;-58
2022/07/19 00:57:03;;;;;;;3.45;1.32;;;;;;;16.02;63.69;101098.07;1757610;80;21050;-58
2022/07/19 00:59:31;;;;;;;3.98;1.42;;;;;;;15.98;63.52;101096.16;1755345;80;21047;-59
2022/07/19 01:01:58;;;;;;;3.08;1.02;;;;;;;15.95;63.39;101098.26;1752883;80;21118;-58
2022/07/19 01:04:25;;;;;;;5.22;1.45;;;;;;;15.89;63.42;101098.34;1761693;80;21558;-58
2022/07/19 01:06:51;;;;;;;3.42;1.20;;;;;;;15.82;63.52;101090.59;1753457;80;21042;-58
2022/07/19 01:09:18;;;;;;;3.62;1.50;;;;;;;15.75;63.68;101092.08;1758718;80;21126;-58
2022/07/19 01:11:46;;;;;;;5.75;1.70;;;;;;;15.70;63.82;101090.33;1754743;79;21093;-58
2022/07/19 01:14:13;;;;;;;4.20;1.47;;;;;;;15.67;63.84;101088.81;1757132;79;21187;-58
2022/07/19 01:16:46;;;;;;;5.33;1.47;;;;;;;15.72;63.66;101091.88;1755397;79;21109;-59
2022/07/19 01:19:13;;;;;;;4.67;1.40;;;;;;;15.71;63.61;101082.23;1758670;79;21139;-58
2022/07/19 01:21:40;;;;;;;3.87;1.20;;;;;;;15.67;63.69;101084.83;1756534;79;21746;-59
2022/07/19 01:24:07;;;;;;;4.37;1.55;;;;;;;15.66;63.79;101084.97;1761252;79;21078;-58
2022/07/19 01:26:34;;;;;;;4.03;1.22;;;;;;;15.65;63.79;101080.16;1757126;79;21157;-58
2022/07/19 01:29:00;;;;;;;4.30;1.60;;;;;;;15.62;63.83;101079.11;1757029;79;21070;-58
2022/07/19 01:31:27;;;;;;;4.15;1.30;;;;;;;15.60;63.70;101079.70;1697414;82;21111;-59
2022/07/19 01:33:54;;;;;;;3.00;1.30;;;;;;;15.56;63.50;101077.83;1762591;79;21456;-58
2022/07/19 01:36:21;;;;;;;4.10;1.32;;;;;;;15.51;63.45;101076.08;1768891;79;21094;-58
2022/07/19 01:38:47;;;;;;;5.47;1.55;;;;;;;15.47;63.52;101072.53;1755786;79;21136;-58
2022/07/19 01:41:14;;;;;;;3.65;1.30;;;;;;;15.48;63.59;101071.55;1760328;79;21042;-59
2022/07/19 01:43:41;;;;;;;2.90;1.20;;;;;;;15.54;63.45;101069.67;1759102;79;21603;-59
2022/07/19 01:46:07;;;;;;;3.77;1.47;;;;;;;15.58;63.51;101073.72;1762343;79;21550;-59
2022/07/19 01:48:35;;;;;;;3.42;1.10;;;;;;;15.62;63.51;101073.80;1759661;79;21087;-59
2022/07/19 01:51:05;;;;;;;4.97;1.22;;;;;;;15.64;63.50;101078.48;1754422;79;21036;-59
2022/07/19 01:53:32;;;;;;;3.55;1.30;;;;;;;15.61;63.36;101078.25;1757664;80;21027;-59
2022/07/19 01:55:59;;;;;;;3.45;1.22;;;;;;;15.56;63.49;101074.34;1753666;79;21008;-59
2022/07/19 01:58:25;;;;;;;5.70;1.30;;;;;;;15.53;63.51;101082.11;1750601;79;21118;-59
2022/07/19 02:00:52;;;;;;;5.53;1.75;;;;;;;15.46;63.52;101086.77;1754148;79;21047;-59
2022/07/19 02:03:18;;;;;;;5.37;1.77;;;;;;;15.38;63.74;101090.95;1757862;79;21202;-58
2022/07/19 02:05:45;;;;;;;3.90;1.57;;;;;;;15.37;64.06;101096.38;1760826;79;21094;-58
2022/07/19 02:08:13;;;;;;;4.05;1.32;;;;;;;15.38;64.17;101091.41;1757722;79;21375;-59
2022/07/19 02:10:40;;;;;;;4.90;1.50;;;;;;;15.41;64.02;101088.49;1770299;79;22259;-58
2022/07/19 02:13:06;;;;;;;3.75;1.12;;;;;;;15.45;64.23;101083.75;1765886;79;21015;-59
2022/07/19 02:15:33;;;;;;;6.58;1.57;;;;;;;15.48;64.28;101089.61;1769704;79;21187;-59
2022/07/19 02:18:01;;;;;;;5.10;1.90;;;;;;;15.52;64.30;101091.53;1757701;79;21059;-59
2022/07/19 02:20:28;;;;;;;4.35;1.47;;;;;;;15.53;64.09;101087.87;1754760;79;21066;-59
2022/07/19 02:22:54;;;;;;;4.53;1.35;;;;;;;15.53;63.94;101087.87;1757989;79;21022;-59
2022/07/19 02:25:21;;;;;;;4.15;1.67;;;;;;;15.50;63.95;101089.01;1767269;79;21069;-59
2022/07/19 02:27:47;;;;;;;4.67;1.40;;;;;;;15.48;64.06;101092.27;1750158;79;21108;-59
2022/07/19 02:30:14;;;;;;;3.20;1.12;;;;;;;15.48;63.98;101090.11;1755398;79;21600;-59
2022/07/19 02:32:40;;;;;;;3.72;1.30;;;;;;;15.54;63.81;101089.56;1759162;79;21055;-59
2022/07/19 02:35:10;;;;;;;4.12;1.60;;;;;;;15.57;63.83;101091.45;1765634;79;21090;-59
2022/07/19 02:37:41;;;;;;;4.30;1.57;;;;;;;15.57;63.84;101092.78;1759338;79;21054;-59
2022/07/19 02:40:09;;;;;;;4.00;1.37;;;;;;;15.58;63.78;101090.95;1756895;79;21137;-59
2022/07/19 02:42:36;;;;;;;5.15;1.60;;;;;;;15.57;63.90;101093.27;1756362;79;21684;-59
2022/07/19 02:45:04;;;;;;;5.05;1.40;;;;;;;15.56;63.97;101095.56;1754747;79;21063;-59
2022/07/19 02:47:32;;;;;;;4.70;1.30;;;;;;;15.54;64.09;101099.68;1754010;79;21071;-59
2022/07/19 02:49:58;;;;;;;3.87;1.40;;;;;;;15.54;64.25;101098.36;1766775;79;21078;-59
2022/07/19 02:52:24;;;;;;;4.45;1.32;;;;;;;15.61;64.38;101095.98;1757752;79;21118;-59
2022/07/19 02:54:51;;;;;;;4.17;1.57;;;;;;;15.69;64.50;101091.33;1752455;79;21059;-59
2022/07/19 02:57:18;;;;;;;3.55;1.17;;;;;;;15.81;64.68;101094.22;1751193;79;21083;-59
2022/07/19 02:59:44;;;;;;;4.50;1.42;;;;;;;15.89;64.67;101096.19;1766165;79;21063;-59
2022/07/19 03:02:11;;;;;;;3.72;1.17;;;;;;;15.93;64.56;101097.07;1769460;79;21096;-58
2022/07/19 03:04:38;;;;;;;3.45;1.40;;;;;;;15.98;64.48;101094.00;1761095;79;22111;-59
2022/07/19 03:07:04;;;;;;;3.72;1.40;;;;;;;16.04;64.49;101088.61;1771942;79;21483;-59
2022/07/19 03:09:31;;;;;;;3.67;1.37;;;;;;;16.09;64.24;101079.26;1760338;79;21027;-59
2022/07/19 03:11:58;;;;;;;4.28;1.30;;;;;;;16.13;64.09;101074.00;1752686;79;21047;-58
2022/07/19 03:14:27;;;;;;;4.05;1.12;;;;;;;16.16;63.75;101070.23;1745047;80;21727;-59
2022/07/19 03:16:55;;;;;;;4.75;1.22;;;;;;;16.17;63.49;101070.56;1742807;81;21188;-58
2022/07/19 03:19:21;;;;;;;3.10;1.35;;;;;;;16.26;63.14;101070.22;1740841;81;21671;-59
2022/07/19 03:21:48;;;;;;;4.80;1.10;;;;;;;16.37;62.57;101067.87;1743294;80;21558;-58
2022/07/19 03:24:15;;;;;;;4.83;1.30;;;;;;;16.43;62.05;101067.31;1744078;80;21089;-59
2022/07/19 03:26:41;;;;;;;4.08;1.30;;;;;;;16.46;61.77;101071.84;1743529;80;21082;-59
2022/07/19 03:29:11;;;;;;;3.62;1.42;;;;;;;16.50;61.55;101075.04;1736640;80;21094;-58
2022/07/19 03:31:38;;;;;;;5.10;1.42;;;;;;;16.55;61.11;101082.59;1744918;80;21038;-59
2022/07/19 03:34:04;;;;;;;3.20;1.20;;;;;;;16.58;60.71;101080.47;1747307;80;21069;-59
2022/07/19 03:36:32;;;;;;;4.50;1.45;;;;;;;16.63;60.55;101078.22;1744889;80;21528;-59
2022/07/19 03:38:58;;;;;;;3.95;1.42;;;;;;;16.66;60.81;101070.43;1744042;80;21113;-58
2022/07/19 03:41:25;;;;;;;3.33;1.05;;;;;;;16.70;60.92;101073.16;1733104;80;21142;-59
2022/07/19 03:43:51;;;;;;;4.12;1.40;;;;;;;16.72;61.16;101077.83;1738415;80;21090;-58
2022/07/19 03:46:20;;;;;;;3.95;1.27;;;;;;;16.76;60.95;101081.88;1741032;80;21560;-58
2022/07/19 03:48:48;;;;;;;3.47;1.30;;;;;;;16.84;60.64;101074.02;1745334;81;21062;-58
2022/07/19 03:51:14;;;;;;;4.12;1.60;;;;;;;16.89;60.35;101070.93;1744949;80;21124;-58
2022/07/19 03:53:41;;;;;;;12.20;1.42;;;;;;;16.95;60.31;101074.34;1738826;80;21139;-58
2022/07/19 03:56:08;;;;;;;4.05;1.22;;;;;;;17.00;60.23;101072.58;1746533;80;20999;-59
2022/07/19 03:58:35;;;;;;;3.25;1.10;;;;;;;17.05;60.18;101075.62;1746645;80;21473;-58
2022/07/19 04:01:03;;;;;;;3.22;1.35;;;;;;;17.07;60.08;101076.30;1746113;80;21082;-59
2022/07/19 04:03:30;;;;;;;3.30;1.10;;;;;;;17.07;59.89;101073.14;1746776;80;20987;-58
2022/07/19 04:05:56;;;;;;;4.67;1.32;;;;;;;17.08;59.88;101071.34;1746194;80;21149;-59
2022/07/19 04:08:24;;;;;;;3.77;1.12;;;;;;;17.11;59.87;101075.51;1745972;80;21050;-59
2022/07/19 04:10:50;;;;;;;4.62;1.32;;;;;;;17.14;59.94;101078.70;1745597;80;21093;-59
2022/07/19 04:16:19;;;;;;;3.45;1.20;;;;;;;17.30;59.86;101075.41;1798934;78;22603;-59
2022/07/19 04:18:45;;;;;;;3.90;1.32;;;;;;;17.36;59.79;101080.61;1777239;80;21002;-59
2022/07/19 04:21:12;;;;;;;4.75;1.17;;;;;;;17.48;59.31;101079.39;1767139;80;21203;-58
2022/07/19 04:23:38;;;;;;;4.45;1.30;;;;;;;17.54;59.04;101076.14;1779013;78;21037;-60
2022/07/19 04:26:05;;;;;;;4.80;1.50;;;;;;;17.60;59.24;101075.54;1776153;80;21093;-59
2022/07/19 04:28:31;;;;;;;3.67;1.35;;;;;;;17.69;59.09;101083.60;1766800;80;21115;-59
2022/07/19 04:30:57;;;;;;;5.05;1.50;;;;;;;17.72;58.99;101081.94;1775470;79;21620;-59
2022/07/19 04:33:24;;;;;;;4.72;1.20;;;;;;;17.76;57.97;101082.00;1769108;79;21125;-60
2022/07/19 04:35:51;;;;;;;4.45;1.25;;;;;;;17.77;57.46;101076.52;1769987;80;20998;-59
2022/07/19 04:38:18;;;;;;;4.53;1.60;;;;;;;17.80;57.30;101079.36;1770723;80;20999;-60
2022/07/19 04:40:44;;;;;;;4.70;1.40;;;;;;;17.82;57.12;101075.57;1772881;79;21038;-58
2022/07/19 04:43:11;;;;;;;3.58;1.32;;;;;;;17.84;56.96;101072.75;1780608;80;21083;-59
2022/07/19 04:45:40;;;;;;;3.37;1.05;;;;;;;17.86;56.94;101072.61;1768770;79;21090;-58
2022/07/19 04:48:08;;;;;;;5.78;1.22;;;;;;;17.89;56.70;101072.33;1775701;80;21097;-59
2022/07/19 04:50:35;;;;;;;3.55;1.30;;;;;;;17.91;56.46;101076.50;1775554;79;21586;-60
2022/07/19 04:53:02;;;;;;;3.17;1.20;;;;;;;17.92;56.24;101074.19;1770081;80;21141;-60
2022/07/19 04:55:28;;;;;;;2.75;1.20;;;;;;;17.96;56.52;101071.55;1776489;79;21049;-59
2022/07/19 04:57:55;;;;;;;3.90;1.40;;;;;;;18.02;56.64;101071.41;1767982;80;21117;-59
2022/07/19 05:00:21;;;;;;;4.45;1.50;;;;;;;18.09;56.27;101073.81;1763497;79;21058;-60
2022/07/19 05:02:48;;;;;;;6.40;1.30;;;;;;;18.15;56.12;101068.35;1764268;80;21509;-60
2022/07/19 05:05:14;;;;;;;8.28;1.70;;;;;;;18.20;55.99;101075.38;1761600;78;21034;-60
2022/07/19 05:07:43;;;;;;;5.00;1.40;;;;;;;18.24;55.89;101072.77;1777937;80;21195;-59
2022/07/19 05:10:11;;;;;;;3.47;1.30;;;;;;;18.29;56.04;101074.45;1772321;78;21130;-59
2022/07/19 05:12:39;;;;;;;9.80;2.17;;;;;;;18.35;55.79;101068.98;1775567;79;21078;-60
2022/07/19 05:15:07;;;;;;;5.47;1.50;;;;;;;18.43;55.93;101080.20;1776750;79;21062;-59
2022/07/19 05:17:34;;;;;;;5.33;1.40;;;;;;;18.50;55.78;101075.91;1759577;80;21054;-60
2022/07/19 05:20:02;;;;;;;9.23;1.77;;;;;;;18.55;55.42;101074.94;1775294;79;21466;-60
2022/07/19 05:22:29;;;;;;;6.25;1.67;;;;;;;18.57;55.80;101076.43;1777868;80;21086;-60
2022/07/19 05:24:56;;;;;;;18.98;3.55;;;;;;;18.61;55.87;101084.97;1755581;79;21050;-58
2022/07/19 05:27:23;;;;;;;9.20;1.75;;;;;;;18.66;55.61;101078.67;1769937;80;21093;-59
2022/07/19 05:29:49;;;;;;;8.95;2.37;;;;;;;18.68;55.64;101079.84;1775340;80;21374;-60
2022/07/19 05:32:18;;;;;;;4.87;1.80;;;;;;;18.72;55.89;101078.02;1772272;79;21050;-60
2022/07/19 05:34:44;;;;;;;7.00;1.67;;;;;;;18.79;55.73;101078.21;1768449;80;21164;-60
2022/07/19 05:37:11;;;;;;;7.05;1.80;;;;;;;18.86;55.20;101083.77;1765565;80;21097;-60
2022/07/19 05:39:39;;;;;;;4.28;1.70;;;;;;;18.89;54.75;101078.95;1767656;79;21010;-61
2022/07/19 05:42:06;;;;;;;5.60;2.02;;;;;;;18.92;54.31;101075.14;1768902;80;21043;-59
2022/07/19 05:44:32;;;;;;;5.22;2.05;;;;;;;18.97;54.52;101077.34;1756399;79;22517;-59
2022/07/19 05:46:59;;;;;;;4.45;1.70;;;;;;;19.05;54.34;101075.52;1765396;80;21171;-59
2022/07/19 05:49:25;;;;;;;5.25;1.77;;;;;;;19.14;54.41;101079.55;1762585;79;21050;-59
2022/07/19 05:51:52;;;;;;;4.50;1.82;;;;;;;19.21;53.98;101079.23;1763279;80;21592;-59
2022/07/19 05:54:19;;;;;;;4.72;1.80;;;;;;;19.28;53.68;101072.24;1767344;80;21138;-59
2022/07/19 05:56:45;;;;;;;5.17;2.05;;;;;;;19.36;53.02;101082.11;1765659;80;21063;-59
2022/07/19 05:59:13;;;;;;;4.58;1.95;;;;;;;19.42;52.98;101075.62;1767147;79;21128;-59
2022/07/19 06:01:40;;;;;;;4.85;1.80;;;;;;;19.46;53.08;101076.95;1763110;80;21115;-59
2022/07/19 06:04:06;;;;;;;6.12;2.12;;;;;;;19.52;53.08;101074.63;1774787;79;21000;-59
2022/07/19 06:06:33;;;;;;;5.75;1.82;;;;;;;19.56;53.00;101067.97;1765657;80;21528;-59
2022/07/19 06:09:01;;;;;;;5.37;1.90;;;;;;;19.62;52.84;101071.33;1759724;80;21027;-59
2022/07/19 06:11:27;;;;;;;4.78;1.90;;;;;;;19.68;52.86;101065.30;1769585;79;22004;-60
2022/07/19 06:13:56;;;;;;;6.03;3.05;;;;;;;19.76;52.80;101064.01;1762144;80;21583;-60
2022/07/19 06:16:22;;;;;;;8.23;2.25;;;;;;;19.85;52.82;101061.69;1768353;79;21038;-59
2022/07/19 06:18:50;;;;;;;5.20;2.15;;;;;;;20.01;53.03;101058.67;1770742;80;21023;-60
2022/07/19 06:21:18;;;;;;;5.05;2.42;;;;;;;20.22;52.83;101058.13;1773816;80;21086;-60
2022/07/19 06:23:45;;;;;;;5.50;2.15;;;;;;;20.39;52.47;101054.43;1772362;80;21133;-60
2022/07/19 06:26:15;;;;;;;4.65;1.90;;;;;;;20.56;52.02;101059.23;1766201;79;21117;-60
2022/07/19 06:28:42;;;;;;;5.65;2.17;;;;;;;20.69;51.36;101060.55;1774082;80;21128;-60
2022/07/19 06:31:13;;;;;;;5.12;2.22;;;;;;;20.77;50.60;101055.99;1765373;79;21087;-60
2022/07/19 06:33:42;;;;;;;4.87;1.92;;;;;;;20.79;50.33;101067.86;1767174;79;21130;-58
2022/07/19 06:36:09;;;;;;;4.90;2.00;;;;;;;20.80;51.00;101068.20;1767865;80;21097;-58
2022/07/19 06:38:36;;;;;;;6.17;2.10;;;;;;;20.87;51.15;101075.02;1766897;80;21586;-58
2022/07/19 06:41:02;;;;;;;4.65;2.08;;;;;;;20.90;50.94;101073.34;1770656;79;21094;-58
2022/07/19 06:43:29;;;;;;;4.30;2.20;;;;;;;20.90;51.57;101070.16;1773123;80;21054;-58
2022/07/19 06:45:55;;;;;;;7.75;2.67;;;;;;;20.95;51.80;101067.80;1770498;79;21317;-60
2022/07/19 06:48:22;;;;;;;6.92;2.40;;;;;;;21.04;51.60;101067.23;1777622;80;21521;-60
2022/07/19 06:50:49;;;;;;;6.10;2.52;;;;;;;21.09;51.43;101066.21;1768929;79;21003;-60
2022/07/19 06:53:15;;;;;;;7.37;2.83;;;;;;;21.13;51.30;101064.87;1762994;80;21003;-60
2022/07/19 06:55:42;;;;;;;7.95;2.40;;;;;;;21.20;51.37;101063.66;1767060;79;21038;-58
2022/07/19 06:58:09;;;;;;;7.65;2.22;;;;;;;21.26;51.02;101057.58;1770047;80;21133;-58
2022/07/19 07:00:36;;;;;;;6.25;2.25;;;;;;;21.33;50.73;101069.27;1771255;78;21144;-58
2022/07/19 07:03:03;;;;;;;8.63;2.50;;;;;;;21.36;50.13;101072.08;1767140;79;20982;-59
2022/07/19 07:05:29;;;;;;;5.72;2.50;;;;;;;21.36;50.59;101071.26;1774021;79;21005;-59
2022/07/19 07:07:56;;;;;;;4.28;2.05;;;;;;;21.34;50.83;101074.93;1771594;80;20911;-59
2022/07/19 07:10:23;;;;;;;6.92;2.90;;;;;;;21.34;50.22;101073.59;1768120;79;21156;-59
2022/07/19 07:12:49;;;;;;;8.20;2.60;;;;;;;21.30;49.75;101075.45;1775303;80;22011;-60
2022/07/19 07:15:16;;;;;;;5.03;2.55;;;;;;;21.24;50.00;101077.52;1733031;82;21099;-59
2022/07/19 07:17:43;;;;;;;5.00;2.17;;;;;;;21.23;50.29;101075.36;1768882;80;21077;-59
2022/07/19 07:20:11;;;;;;;6.12;2.50;;;;;;;21.25;50.63;101074.67;1764219;79;21324;-59
2022/07/19 07:22:38;;;;;;;5.40;2.37;;;;;;;21.29;50.93;101073.81;1764496;80;21104;-60
2022/07/19 07:25:06;;;;;;;5.25;2.37;;;;;;;21.36;50.35;101077.44;1764530;80;21763;-59
2022/07/19 07:27:33;;;;;;;5.47;2.67;;;;;;;21.40;50.08;101068.55;1765710;80;21621;-59
2022/07/19 07:29:59;;;;;;;7.35;2.35;;;;;;;21.41;50.38;101067.55;1767422;80;21079;-59
2022/07/19 07:32:26;;;;;;;5.12;2.20;;;;;;;21.46;50.22;101071.34;1767416;80;21062;-59
2022/07/19 07:34:54;;;;;;;5.03;2.08;;;;;;;21.48;50.07;101069.86;1763389;80;21577;-59
2022/07/19 07:37:21;;;;;;;7.92;2.45;;;;;;;21.51;50.25;101070.84;1740072;80;21229;-59
2022/07/19 07:39:47;;;;;;;5.95;2.60;;;;;;;21.55;50.49;101074.00;1766112;80;21027;-59
2022/07/19 07:42:13;;;;;;;5.37;2.02;;;;;;;21.59;50.84;101072.65;1768265;80;21105;-58
2022/07/19 07:44:41;;;;;;;5.40;2.00;;;;;;;21.64;51.17;101072.43;1769556;80;21098;-58
2022/07/19 07:47:10;;;;;;;4.65;1.98;;;;;;;21.74;50.12;101075.36;1770319;80;21573;-59
2022/07/19 07:49:39;;;;;;;5.72;2.08;;;;;;;21.82;50.06;101073.95;1763172;80;21966;-58
2022/07/19 07:52:06;;;;;;;5.78;2.40;;;;;;;21.88;49.36;101072.73;1769205;80;21752;-58
2022/07/19 07:54:34;;;;;;;7.28;2.47;;;;;;;21.97;49.38;101077.53;1749741;80;21065;-59
2022/07/19 07:57:00;;;;;;;5.40;2.67;;;;;;;22.06;49.11;101080.45;1765330;80;21051;-59
2022/07/19 07:59:27;;;;;;;5.65;2.30;;;;;;;22.11;49.02;101081.25;1771029;80;21380;-59
2022/07/19 08:01:53;;;;;;;8.60;2.62;;;;;;;22.13;49.15;101077.87;1768424;80;22350;-47
2022/07/19 08:04:19;;;;;;;6.35;2.17;;;;;;;22.14;48.81;101078.70;1764314;79;21011;-47
2022/07/19 08:06:47;;;;;;;5.80;2.00;;;;;;;22.11;49.00;101081.25;1766138;80;21039;-47
2022/07/19 08:09:14;;;;;;;7.62;2.70;;;;;;;22.12;49.21;101084.76;1694747;83;21130;-47
2022/07/19 08:11:41;;;;;;;5.47;2.27;;;;;;;22.12;49.31;101079.39;1773595;80;21141;-48
2022/07/19 08:14:09;;;;;;;6.37;1.98;;;;;;;22.11;49.51;101083.94;1758237;80;21120;-48
2022/07/19 08:16:36;;;;;;;4.33;1.72;;;;;;;22.10;48.47;101090.81;1769422;80;21046;-49
2022/07/19 08:19:03;;;;;;;5.10;2.12;;;;;;;22.06;47.85;101089.00;1772102;80;21018;-48
2022/07/19 08:21:31;;;;;;;4.75;1.50;;;;;;;22.05;47.99;101088.67;1763822;80;21078;-49
2022/07/19 08:23:57;;;;;;;17.05;3.55;;;;;;;21.96;47.44;101082.55;1768587;80;21062;-49
2022/07/19 08:26:24;;;;;;;6.80;2.33;;;;;;;21.87;47.88;101098.36;1771651;80;21128;-48
2022/07/19 08:28:51;;;;;;;4.75;2.05;;;;;;;21.76;48.35;101098.28;1768596;80;21521;-48
2022/07/19 08:31:18;;;;;;;8.73;2.37;;;;;;;21.68;48.53;101097.83;1761689;80;21047;-47
2022/07/19 08:33:46;;;;;;;6.42;2.27;;;;;;;21.63;49.11;101096.70;1758786;80;21081;-48
2022/07/19 08:36:12;;;;;;;6.10;2.05;;;;;;;21.58;49.56;101093.73;1764199;80;21059;-48
2022/07/19 08:38:39;;;;;;;4.15;1.67;;;;;;;21.55;50.03;101096.76;1767036;80;22894;-48
2022/07/19 08:41:06;;;;;;;6.25;2.00;;;;;;;21.51;50.11;101093.09;1767153;80;21059;-48
2022/07/19 08:43:33;;;;;;;4.85;1.82;;;;;;;21.47;50.61;101091.80;1765243;80;21069;-48
2022/07/19 08:46:01;;;;;;;4.33;1.75;;;;;;;21.44;50.91;101089.95;1771249;80;21105;-47
2022/07/19 08:48:34;;;;;;;4.25;1.90;;;;;;;21.37;51.11;101083.61;1770109;79;21097;-47
2022/07/19 08:51:02;;;;;;;4.30;1.55;;;;;;;21.34;51.27;101080.28;1765749;80;21758;-47
2022/07/19 08:53:32;;;;;;;5.53;2.15;;;;;;;21.38;51.40;101079.94;1767210;80;21064;-47
2022/07/19 08:56:01;;;;;;;5.45;1.98;;;;;;;21.41;51.62;101083.09;1764605;80;21058;-48
2022/07/19 08:58:27;;;;;;;4.28;1.77;;;;;;;21.41;51.46;101082.27;1769704;80;21050;-48
2022/07/19 09:00:54;;;;;;;3.83;1.52;;;;;;;21.45;51.38;101079.06;1761027;80;21141;-48
2022/07/19 09:03:20;;;;;;;5.53;1.98;;;;;;;21.46;51.61;101077.22;1766318;79;21957;-47
2022/07/19 09:05:48;;;;;;;4.05;1.80;;;;;;;21.47;51.89;101074.91;1772332;80;21089;-48
2022/07/19 09:08:16;;;;;;;4.15;1.50;;;;;;;21.47;51.96;101077.59;1740230;80;21078;-48
2022/07/19 09:11:14;;;;;;;4.08;1.57;;;;;;;21.44;51.96;101079.24;1760501;79;21098;-47
2022/07/19 09:13:16;;;;;;;4.10;1.80;;;;;;;21.41;52.24;101072.89;1766896;80;21101;-48
2022/07/19 09:15:54;;;;;;;5.95;2.10;;;;;;;21.39;52.36;101080.28;1764909;80;22032;-51
2022/07/19 09:18:29;;;;;;;4.25;1.75;;;;;;;21.33;52.45;101075.97;1751268;80;21690;-47
2022/07/19 09:21:01;;;;;;;3.90;1.73;;;;;;;21.33;52.75;101073.28;1766041;80;21047;-48
2022/07/19 09:23:28;;;;;;;5.55;1.82;;;;;;;21.34;52.88;101073.59;1751813;80;21549;-47
2022/07/19 09:26:04;;;;;;;4.12;1.87;;;;;;;21.40;53.25;101076.58;1745182;80;21091;-47
2022/07/19 09:28:33;;;;;;;5.92;2.02;;;;;;;21.41;53.16;101072.38;1760722;80;26016;-48
2022/07/19 09:31:00;;;;;;;5.70;2.15;;;;;;;21.41;53.38;101069.70;1767341;80;21046;-48
2022/07/19 09:33:29;;;;;;;4.70;2.00;;;;;;;21.45;53.76;101068.36;1763053;79;21046;-48
2022/07/19 09:36:02;;;;;;;4.60;2.08;;;;;;;21.54;53.71;101075.03;1758307;80;21117;-48
2022/07/19 09:38:33;;;;;;;5.55;1.95;;;;;;;21.57;53.21;101063.45;1760561;80;21557;-48
2022/07/19 09:41:17;;;;;;;7.30;2.20;;;;;;;21.61;52.84;101060.73;1757360;80;21086;-48
2022/07/19 09:43:56;;;;;;;4.90;1.98;;;;;;;21.64;52.94;101059.55;1755838;80;21036;-49
2022/07/19 09:46:35;;;;;;;5.08;1.98;;;;;;;21.74;53.32;101056.61;1764643;80;21051;-49
2022/07/19 09:49:15;;;;;;;4.95;1.82;;;;;;;21.87;52.74;101061.70;1754649;79;21533;-49
2022/07/19 09:51:45;;;;;;;5.58;2.37;;;;;;;21.93;52.83;101050.76;1753565;80;21133;-48
2022/07/19 09:54:17;;;;;;;4.45;1.98;;;;;;;22.03;52.37;101055.87;1764494;79;21155;-49
2022/07/19 09:56:45;;;;;;;4.80;2.00;;;;;;;22.05;52.63;101057.33;1753478;80;21106;-49
2022/07/19 09:59:12;;;;;;;4.12;1.70;;;;;;;22.05;52.43;101052.49;1758765;80;21113;-49
2022/07/19 10:01:39;;;;;;;4.67;1.70;;;;;;;22.02;52.30;101059.06;1761357;80;21019;-49
2022/07/19 10:04:10;;;;;;;5.30;1.80;;;;;;;;;;1759159;79;21118;-49
2022/07/19 10:06:38;;;;;;;4.65;1.80;;;;;;;21.95;52.88;101059.95;1760311;80;21194;-49
2022/07/19 10:09:07;;;;;;;3.80;1.75;;;;;;;21.87;53.45;101056.83;1762899;79;21085;-49
2022/07/19 10:11:34;;;;;;;3.80;1.50;;;;;;;21.82;53.78;101048.50;1764321;80;21126;-47
2022/07/19 10:14:02;;;;;;;4.15;1.82;;;;;;;21.81;53.51;101045.52;1757850;80;20988;-47
2022/07/19 10:17:09;;;;;;;3.85;1.60;;;;;;;21.81;53.51;101046.86;1747505;79;21106;-47
2022/07/19 10:19:42;;;;;;;4.85;1.98;;;;;;;21.83;53.77;101046.16;1755406;80;21200;-49
2022/07/19 10:22:15;;;;;;;4.90;1.77;;;;;;;21.93;53.87;101045.41;1742541;81;20996;-48
2022/07/19 10:25:07;;;;;;;4.60;1.65;;;;;;;22.11;53.28;101041.54;1752774;80;21045;-47
2022/07/19 10:27:40;;;;;;;5.20;2.15;;;;;;;22.26;52.91;101043.23;1754765;80;21082;-48
2022/07/19 10:30:16;;;;;;;4.62;1.70;;;;;;;22.42;52.66;101044.92;1743036;81;21117;-48
2022/07/19 10:32:44;;;;;;;;;;;;;;;22.54;51.11;101037.77;1749221;80;21128;-49
2022/07/19 10:35:23;;;;;;;4.65;1.50;;;;;;;22.63;51.13;101036.14;1755483;81;20230;-49
2022/07/19 10:38:04;;;;;;;4.78;1.47;;;;;;;22.70;51.47;101028.19;1753130;80;21098;-47
2022/07/19 10:40:43;;;;;;;4.90;1.75;;;;;;;22.86;51.28;101027.64;1757747;81;21106;-47
2022/07/19 10:43:18;;;;;;;4.05;1.35;;;;;;;22.98;50.64;101022.95;1756664;79;21054;-48
2022/07/19 10:46:03;;;;;;;3.65;1.40;;;;;;;23.10;50.17;101020.64;1751662;79;21389;-47
2022/07/19 10:48:39;;;;;;;4.65;2.10;;;;;;;23.16;49.96;101019.86;1756185;79;21165;-49
2022/07/19 10:51:09;;;;;;;5.55;1.85;;;;;;;23.18;50.25;101015.16;1744109;80;21540;-49
2022/07/19 10:53:48;;;;;;;5.80;2.00;;;;;;;23.18;49.93;101011.13;1757165;81;21126;-48
2022/07/19 10:56:19;;;;;;;3.58;1.52;;;;;;;23.18;50.51;101005.76;1756759;81;21061;-49
2022/07/19 10:59:01;;;;;;;3.95;1.95;;;;;;;23.33;50.34;101002.16;1753814;79;21091;-48
2022/07/19 11:01:30;;;;;;;3.60;1.70;;;;;;;23.51;49.83;100998.52;1758184;80;21125;-48
2022/07/19 11:04:23;;;;;;;5.15;2.20;;;;;;;23.63;49.52;101000.69;1754918;80;21087;-49
2022/07/19 11:06:51;;;;;;;7.42;2.40;;;;;;;23.66;49.40;100997.09;1716886;80;21516;-49
2022/07/19 11:09:17;;;;;;;4.83;2.35;;;;;;;23.72;49.75;100988.75;1758137;79;21555;-48
2022/07/19 11:11:44;;;;;;;5.40;2.27;;;;;;;23.83;48.99;100994.97;1758038;81;21106;-48
2022/07/19 11:14:12;;;;;;;5.70;1.85;;;;;;;23.91;49.07;100987.29;1755596;79;21122;-48
2022/07/19 11:16:39;;;;;;;4.67;1.95;;;;;;;23.99;48.83;100987.14;1758586;81;21166;-48
2022/07/19 11:19:09;;;;;;;5.35;2.02;;;;;;;24.07;48.54;100986.99;1757279;79;21138;-48
2022/07/19 11:21:37;;;;;;;4.53;2.20;;;;;;;24.17;47.98;100983.10;1753814;80;21059;-48
2022/07/19 11:24:05;;;;;;;3.92;1.80;;;;;;;24.20;47.62;100978.16;1759117;80;21173;-48
2022/07/19 11:26:38;;;;;;;9.98;2.50;;;;;;;24.21;47.41;100974.45;1749176;80;21538;-48
2022/07/19 11:29:05;;;;;;;6.47;2.17;;;;;;;24.18;47.48;100976.71;1754003;80;21010;-48
2022/07/19 11:31:32;;;;;;;6.00;1.80;;;;;;;24.11;47.73;100977.48;1749459;80;21131;-48
2022/07/19 11:34:00;;;;;;;4.50;1.85;;;;;;;24.01;47.33;100971.64;1758816;79;21110;-49